Time;durP1;ratioP1;P1;durP2;ratioP2;P2;SDS_P1;SDS_P2;PMS_P1;PMS_P2;Temp;Humidity;BMP_temperature;BMP_pressure;BME280_temperature;BME280_humidity;BME280_pressure;Samples;Min_cycle;Max_cycle;Signal;HPM_P1;HPM_P2
2022/07/18 00:01:32;;;;;;;12.48;7.05;;;;;;;21.51;50.50;102492.06;5202513;28;20429;-53
2022/07/18 00:04:05;;;;;;;15.70;6.22;;;;;;;21.46;50.59;102483.69;5201639;28;20517;-54
2022/07/18 00:06:37;;;;;;;10.45;7.50;;;;;;;21.42;50.73;102485.09;5203022;28;20404;-53
2022/07/18 00:09:11;;;;;;;12.10;6.88;;;;;;;21.25;50.75;102462.88;5206648;28;20425;-50
2022/07/18 00:11:44;;;;;;;9.45;6.63;;;;;;;21.34;50.94;102482.47;5200668;28;20440;-50
2022/07/18 00:14:16;;;;;;;11.40;7.27;;;;;;;21.29;51.07;102476.78;5196824;28;20418;-52
2022/07/18 00:16:49;;;;;;;11.57;6.95;;;;;;;21.04;50.94;102439.38;5199429;28;20505;-53
2022/07/18 00:19:22;;;;;;;13.00;7.25;;;;;;;21.22;51.03;102478.53;5203151;28;20500;-53
2022/07/18 00:21:54;;;;;;;9.98;6.75;;;;;;;21.19;51.22;102472.50;5199698;28;20435;-51
2022/07/18 00:24:29;;;;;;;11.57;7.20;;;;;;;21.03;51.27;102447.59;5200398;28;20482;-53
2022/07/18 00:27:04;;;;;;;12.27;7.10;;;;;;;21.13;51.48;102467.00;5199010;28;20409;-50
2022/07/18 00:29:37;;;;;;;9.98;7.20;;;;;;;20.94;51.42;102446.84;5196893;28;20446;-52
2022/07/18 00:32:10;;;;;;;11.07;7.05;;;;;;;20.99;51.48;102452.50;5200616;28;20402;-53
2022/07/18 00:34:43;;;;;;;7.82;6.20;;;;;;;21.05;51.61;102467.88;5203225;28;20584;-52
2022/07/18 00:37:15;;;;;;;14.93;7.72;;;;;;;20.96;51.55;102450.16;5200843;28;20478;-55
2022/07/18 00:39:49;;;;;;;12.02;7.25;;;;;;;21.00;51.80;102481.03;5198802;28;20515;-60
2022/07/18 00:42:22;;;;;;;10.13;6.97;;;;;;;20.94;51.88;102446.84;5172269;28;20500;-51
2022/07/18 00:44:57;;;;;;;10.05;7.32;;;;;;;20.95;51.85;102451.19;5170201;28;20514;-53
2022/07/18 00:47:30;;;;;;;11.15;6.57;;;;;;;20.91;51.82;102450.72;5196886;28;20495;-52
2022/07/18 00:50:05;;;;;;;12.73;6.90;;;;;;;20.60;51.91;102402.44;5202462;28;20421;-52
2022/07/18 00:52:38;;;;;;;10.70;6.90;;;;;;;20.87;51.88;102445.88;5192155;28;20406;-52
2022/07/18 00:55:12;;;;;;;9.70;6.72;;;;;;;20.56;51.83;102401.09;5202809;28;20449;-56
2022/07/18 00:57:45;;;;;;;12.05;7.05;;;;;;;20.82;51.79;102434.84;5196715;28;20417;-50
2022/07/18 01:03:08;;;;;;;10.43;6.43;;;;;;;20.78;51.79;102445.09;5198512;28;20403;-54
2022/07/18 01:05:41;;;;;;;10.13;6.23;;;;;;;20.76;51.84;102446.28;5195508;28;20426;-51
2022/07/18 01:08:13;;;;;;;11.03;6.67;;;;;;;20.68;51.89;102453.38;5201132;28;20814;-54
2022/07/18 01:10:47;;;;;;;11.07;6.80;;;;;;;20.69;51.69;102452.38;5190343;28;20796;-52
2022/07/18 01:13:20;;;;;;;11.80;6.80;;;;;;;20.64;51.68;102432.44;5196307;28;20854;-55
2022/07/18 01:15:52;;;;;;;10.98;6.32;;;;;;;20.57;51.63;102435.00;5200275;28;20417;-54
2022/07/18 01:18:25;;;;;;;12.30;6.60;;;;;;;20.62;51.65;102448.69;5200707;28;20433;-52
2022/07/18 01:20:59;;;;;;;9.77;6.15;;;;;;;20.60;51.56;102448.06;5202157;28;20484;-56
2022/07/18 01:23:31;;;;;;;14.23;6.80;;;;;;;20.50;51.47;102431.28;5206041;28;20420;-56
2022/07/18 01:26:04;;;;;;;10.80;6.18;;;;;;;20.46;51.24;102420.09;5200539;28;20562;-56
2022/07/18 01:28:37;;;;;;;18.20;6.88;;;;;;;20.58;51.01;102443.88;5199319;28;21001;-57
2022/07/18 01:31:27;;;;;;;18.03;6.13;;;;;;;20.60;50.96;102442.69;5205065;28;20463;-53
2022/07/18 01:34:00;;;;;;;9.83;5.50;;;;;;;20.59;50.83;102435.63;5195764;28;20422;-51
2022/07/18 01:36:33;;;;;;;10.88;5.80;;;;;;;20.50;50.71;102426.78;5193728;28;20409;-52
2022/07/18 01:39:06;;;;;;;11.18;5.50;;;;;;;20.19;50.20;102402.66;5196818;28;20989;-51
2022/07/18 01:41:38;;;;;;;10.07;5.95;;;;;;;20.59;50.24;102435.63;5194790;28;20769;-48
2022/07/18 01:44:11;;;;;;;11.82;6.20;;;;;;;20.60;50.00;102434.66;5197770;28;20486;-50
2022/07/18 01:46:43;;;;;;;11.02;5.72;;;;;;;20.49;49.78;102418.91;5200248;28;20865;-50
2022/07/18 01:49:15;;;;;;;8.80;5.72;;;;;;;20.56;49.66;102416.38;5199235;28;20413;-50
2022/07/18 01:51:52;;;;;;;8.27;4.80;;;;;;;20.53;49.52;102409.50;5201261;28;20397;-51
2022/07/18 01:54:27;;;;;;;11.23;5.63;;;;;;;20.46;49.30;102403.16;5199757;28;20416;-52
2022/07/18 01:57:01;;;;;;;8.15;4.70;;;;;;;20.33;49.16;102389.50;5205488;28;20441;-49
2022/07/18 01:59:34;;;;;;;9.30;5.33;;;;;;;20.55;48.90;102423.59;5201572;28;20420;-49
2022/07/18 02:02:07;;;;;;;11.27;5.55;;;;;;;20.56;48.60;102414.53;5195033;28;20512;-48
2022/07/18 02:07:36;;;;;;;9.20;5.38;;;;;;;20.54;48.32;102419.25;5194868;28;20419;-52
2022/07/18 02:10:11;;;;;;;12.63;5.30;;;;;;;20.54;48.24;102415.72;5193162;28;20415;-49
2022/07/18 02:12:43;;;;;;;12.23;5.80;;;;;;;20.47;48.25;102410.19;5197667;28;20417;-49
2022/07/18 02:15:17;;;;;;;13.40;5.60;;;;;;;20.49;48.03;102417.06;5203622;28;20397;-49
2022/07/18 02:17:55;;;;;;;12.52;5.78;;;;;;;20.38;48.02;102405.91;5188434;28;20992;-54
2022/07/18 02:20:27;;;;;;;14.00;6.13;;;;;;;20.12;48.21;102366.78;5192633;28;20496;-51
2022/07/18 02:23:01;;;;;;;13.73;5.93;;;;;;;20.35;48.22;102411.63;5200212;28;20496;-53
2022/07/18 02:25:33;;;;;;;14.38;6.22;;;;;;;20.38;48.35;102411.28;5199973;28;20417;-52
2022/07/18 02:28:06;;;;;;;14.43;6.22;;;;;;;20.35;48.47;102406.25;5199987;28;20443;-54
2022/07/18 02:30:38;;;;;;;11.30;5.72;;;;;;;20.32;48.45;102412.81;5196849;28;20504;-53
2022/07/18 02:33:11;;;;;;;14.52;6.05;;;;;;;20.27;48.67;102399.91;5196100;28;20791;-53
2022/07/18 02:35:44;;;;;;;12.65;5.22;;;;;;;20.22;48.84;102396.94;5196470;28;20901;-50
2022/07/18 02:38:17;;;;;;;12.93;6.53;;;;;;;20.20;49.03;102404.31;5196163;28;20492;-49
2022/07/18 02:40:50;;;;;;;12.43;6.50;;;;;;;20.16;48.98;102402.13;5197330;28;20405;-55
2022/07/18 02:43:22;;;;;;;15.00;5.83;;;;;;;20.12;49.15;102409.69;5190816;28;20538;-49
2022/07/18 02:45:55;;;;;;;13.87;6.63;;;;;;;19.95;49.30;102383.97;5190890;28;20427;-52
2022/07/18 02:48:27;;;;;;;16.13;6.07;;;;;;;20.01;49.57;102402.06;5197881;28;20413;-54
2022/07/18 02:51:01;;;;;;;12.33;5.60;;;;;;;19.90;49.71;102392.53;5189498;28;21118;-49
2022/07/18 02:53:34;;;;;;;11.67;6.13;;;;;;;19.94;49.83;102395.69;5195658;28;20849;-54
2022/07/18 02:56:07;;;;;;;10.80;6.10;;;;;;;19.74;49.97;102355.06;5198098;28;20425;-51
2022/07/18 02:58:41;;;;;;;14.00;6.15;;;;;;;19.87;50.02;102386.69;5200682;28;20916;-53
2022/07/18 03:01:13;;;;;;;11.57;6.00;;;;;;;19.76;50.09;102369.97;5198811;28;20463;-56
2022/07/18 03:03:45;;;;;;;9.27;5.53;;;;;;;19.78;50.29;102370.63;5202074;28;20409;-53
2022/07/18 03:06:18;;;;;;;11.68;6.13;;;;;;;19.74;50.37;102371.97;5194528;28;20506;-56
2022/07/18 03:08:52;;;;;;;13.68;6.25;;;;;;;19.71;50.62;102375.00;5185396;28;20465;-52
2022/07/18 03:11:24;;;;;;;9.02;5.53;;;;;;;19.69;50.65;102376.19;5199615;28;20420;-54
2022/07/18 03:13:56;;;;;;;14.18;6.00;;;;;;;19.66;50.91;102380.03;5200876;28;20505;-52
2022/07/18 03:16:29;;;;;;;9.07;5.43;;;;;;;19.65;50.86;102369.50;5197094;28;20529;-51
2022/07/18 03:19:23;;;;;;;9.77;5.60;;;;;;;19.51;50.87;102352.25;5205766;28;20917;-54
2022/07/18 03:21:55;;;;;;;10.10;5.38;;;;;;;19.61;51.06;102360.13;5197713;28;20602;-50
2022/07/18 03:24:29;;;;;;;10.45;5.50;;;;;;;19.57;51.11;102348.88;5203948;28;20449;-49
2022/07/18 03:27:02;;;;;;;11.27;5.70;;;;;;;19.53;51.17;102347.56;5196606;28;20478;-55
2022/07/18 03:29:34;;;;;;;10.55;5.03;;;;;;;18.94;51.25;102247.94;5198158;28;20827;-53
2022/07/18 03:32:07;;;;;;;9.93;4.88;;;;;;;19.55;51.31;102343.72;5204309;28;20838;-53
2022/07/18 03:34:40;;;;;;;13.00;5.05;;;;;;;19.55;51.40;102334.84;5204021;28;20484;-53
2022/07/18 03:37:12;;;;;;;13.80;5.55;;;;;;;19.55;51.20;102332.16;5198249;28;20513;-50
2022/07/18 03:39:46;;;;;;;15.88;8.48;;;;;;;19.50;51.16;102316.59;5203145;28;20475;-50
2022/07/18 03:42:18;;;;;;;13.02;6.38;;;;;;;19.58;51.11;102329.13;5202041;28;20409;-55
2022/07/18 03:44:51;;;;;;;11.40;5.10;;;;;;;19.55;50.93;102321.44;5203715;28;20411;-52
2022/07/18 03:47:23;;;;;;;9.18;4.55;;;;;;;19.62;50.86;102332.28;5200741;28;22412;-49
2022/07/18 03:49:55;;;;;;;21.15;5.47;;;;;;;19.63;50.72;102326.75;5207148;28;20405;-50
2022/07/18 03:52:28;;;;;;;9.95;4.60;;;;;;;19.53;50.70;102302.84;5199376;28;20626;-51
2022/07/18 03:55:03;;;;;;;17.27;5.93;;;;;;;19.51;50.58;102317.41;5198241;28;20778;-49
2022/07/18 03:57:35;;;;;;;13.27;5.28;;;;;;;19.64;50.48;102324.94;5204406;28;20417;-49
2022/07/18 04:00:09;;;;;;;9.40;4.80;;;;;;;19.62;50.47;102319.72;5198854;28;22228;-48
2022/07/18 04:02:46;;;;;;;10.88;4.80;;;;;;;19.58;50.51;102319.25;5197488;28;20410;-52
2022/07/18 04:05:19;;;;;;;10.65;3.80;;;;;;;19.19;50.30;102254.91;5196065;28;20853;-57
2022/07/18 04:07:51;;;;;;;7.53;4.13;;;;;;;19.64;50.36;102328.47;5201077;28;20425;-53
2022/07/18 04:10:25;;;;;;;8.02;3.75;;;;;;;19.66;50.20;102325.59;5198843;28;20420;-53
2022/07/18 04:12:57;;;;;;;9.70;4.10;;;;;;;19.70;49.93;102327.78;5196599;28;20980;-51
2022/07/18 04:15:31;;;;;;;7.65;3.78;;;;;;;19.75;49.66;102317.34;5203928;28;20423;-50
2022/07/18 04:18:04;;;;;;;12.77;3.72;;;;;;;19.79;49.46;102321.38;5202656;28;20417;-50
2022/07/18 04:20:38;;;;;;;6.18;3.28;;;;;;;19.90;49.22;102327.34;5201054;28;20793;-51
2022/07/18 04:23:11;;;;;;;6.93;3.35;;;;;;;19.82;48.86;102309.47;5190701;28;20488;-49
2022/07/18 04:25:45;;;;;;;8.45;3.28;;;;;;;19.97;48.62;102323.78;5201672;28;20511;-52
2022/07/18 04:28:18;;;;;;;6.93;3.58;;;;;;;20.09;48.45;102343.00;5199942;28;20404;-44
2022/07/18 04:30:50;;;;;;;6.47;3.20;;;;;;;20.10;48.09;102333.09;5199515;28;20435;-59
2022/07/18 04:33:23;;;;;;;9.05;3.67;;;;;;;20.20;48.05;102337.25;5201047;28;20447;-53
2022/07/18 04:35:56;;;;;;;8.68;3.25;;;;;;;20.24;47.83;102357.31;5200313;28;20503;-52
2022/07/18 04:38:30;;;;;;;8.40;3.65;;;;;;;20.29;47.61;102347.94;5200972;28;20628;-50
2022/07/18 04:41:04;;;;;;;7.53;3.72;;;;;;;20.20;47.48;102326.50;5197284;28;20575;-50
2022/07/18 04:43:37;;;;;;;9.93;4.07;;;;;;;20.37;47.33;102331.75;5197208;28;20439;-51
2022/07/18 04:46:09;;;;;;;14.57;4.28;;;;;;;20.23;47.27;102301.19;5193309;28;20508;-49
2022/07/18 04:48:41;;;;;;;9.70;4.03;;;;;;;20.26;47.30;102307.03;5199053;28;20518;-50
2022/07/18 04:51:14;;;;;;;10.20;4.03;;;;;;;20.49;47.31;102338.38;5203786;28;20464;-49
2022/07/18 04:53:46;;;;;;;8.88;4.35;;;;;;;20.49;47.35;102333.03;5200940;28;20410;-49
2022/07/18 04:56:20;;;;;;;11.67;4.70;;;;;;;20.46;47.35;102328.00;5198961;28;20439;-55
2022/07/18 04:58:52;;;;;;;14.45;4.10;;;;;;;20.65;47.28;102340.13;5182164;28;20859;-55
2022/07/18 05:01:25;;;;;;;11.75;4.20;;;;;;;20.68;47.34;102327.19;5187046;28;20453;-49
2022/07/18 05:04:31;;;;;;;9.03;4.30;;;;;;;20.78;47.23;102320.72;5201846;28;20440;-50
2022/07/18 05:07:04;;;;;;;10.43;3.67;;;;;;;20.80;47.05;102314.19;5197781;28;20425;-54
2022/07/18 05:09:36;;;;;;;10.55;4.13;;;;;;;20.72;47.13;102296.31;5198995;28;20964;-51
2022/07/18 05:12:10;;;;;;;10.15;3.58;;;;;;;20.90;47.17;102311.22;5192270;28;20454;-52
2022/07/18 05:14:42;;;;;;;10.45;3.83;;;;;;;20.98;47.07;102324.59;5190779;28;20880;-51
2022/07/18 05:17:14;;;;;;;12.60;4.15;;;;;;;20.82;46.83;102284.47;5190010;28;20415;-53
2022/07/18 05:19:47;;;;;;;10.23;3.43;;;;;;;21.09;46.90;102307.19;5192859;28;20458;-52
2022/07/18 05:22:19;;;;;;;7.43;3.60;;;;;;;21.31;46.52;102300.09;5190709;28;20416;-54
2022/07/18 05:24:52;;;;;;;11.70;3.80;;;;;;;22.01;45.66;102310.28;5196436;28;20516;-49
2022/07/18 05:27:26;;;;;;;9.30;4.10;;;;;;;23.29;44.27;102305.88;5209828;28;20417;-54
2022/07/18 05:30:02;;;;;;;10.30;3.63;;;;;;;24.57;42.66;102303.41;5206564;28;20459;-53
2022/07/18 05:32:34;;;;;;;9.07;2.85;;;;;;;25.57;41.56;102304.06;5207940;28;20508;-52
2022/07/18 05:35:09;;;;;;;6.50;3.13;;;;;;;26.46;40.53;102291.50;5208241;28;20902;-54
2022/07/18 05:37:42;;;;;;;7.23;2.90;;;;;;;27.55;39.17;102292.72;5209265;28;20414;-53
2022/07/18 05:40:16;;;;;;;9.25;2.90;;;;;;;28.65;37.96;102304.38;5207796;28;20497;-54
2022/07/18 05:42:50;;;;;;;7.85;2.97;;;;;;;29.56;36.80;102288.41;5205166;28;20416;-53
2022/07/18 05:45:24;;;;;;;5.55;2.58;;;;;;;30.67;35.48;102291.50;5207590;28;20413;-57
2022/07/18 05:47:56;;;;;;;8.65;2.40;;;;;;;31.76;34.23;102300.03;5208002;28;20488;-57
2022/07/18 05:50:29;;;;;;;8.93;2.95;;;;;;;32.82;33.03;102291.13;5209548;28;20409;-59
2022/07/18 05:53:01;;;;;;;8.57;2.93;;;;;;;33.12;32.02;102223.97;5205643;28;20873;-57
2022/07/18 05:55:34;;;;;;;10.80;2.90;;;;;;;34.16;31.71;102283.13;5209455;28;20483;-58
2022/07/18 05:58:08;;;;;;;5.10;2.65;;;;;;;34.27;31.12;102292.16;5210052;28;20423;-60
2022/07/18 06:00:43;;;;;;;12.70;3.22;;;;;;;34.05;31.04;102286.16;5206611;28;20406;-58
2022/07/18 06:03:15;;;;;;;10.63;2.80;;;;;;;33.63;31.41;102284.41;5209197;28;20412;-58
2022/07/18 06:05:48;;;;;;;7.32;2.70;;;;;;;33.47;31.19;102297.19;5208017;28;20784;-56
2022/07/18 06:08:20;;;;;;;8.13;2.93;;;;;;;33.15;31.35;102297.38;5207469;28;20544;-59
2022/07/18 06:10:52;;;;;;;13.57;4.03;;;;;;;33.16;31.16;102288.06;5208203;28;20409;-58
2022/07/18 06:13:26;;;;;;;10.80;3.80;;;;;;;33.42;30.72;102291.72;5206343;28;20480;-58
2022/07/18 06:15:59;;;;;;;16.38;3.05;;;;;;;34.18;29.89;102291.06;5209126;28;20502;-56
2022/07/18 06:18:31;;;;;;;9.13;3.00;;;;;;;35.09;28.55;102281.91;5205598;28;20474;-59
2022/07/18 06:21:04;;;;;;;12.32;3.22;;;;;;;36.19;27.83;102282.63;5209220;28;20405;-58
2022/07/18 06:23:36;;;;;;;8.75;2.55;;;;;;;37.01;26.61;102287.34;5209607;28;20420;-60
2022/07/18 06:26:08;;;;;;;11.80;2.90;;;;;;;37.37;26.40;102264.81;5214938;28;20417;-61
2022/07/18 06:28:42;;;;;;;6.88;2.30;;;;;;;37.54;25.80;102281.69;5209153;28;20886;-60
2022/07/18 06:31:16;;;;;;;5.80;2.72;;;;;;;36.81;26.41;102279.28;5208623;28;20412;-62
2022/07/18 06:33:48;;;;;;;7.60;2.65;;;;;;;35.82;26.63;102274.09;5204364;28;20417;-46
2022/07/18 06:36:24;;;;;;;9.20;2.50;;;;;;;35.02;27.17;102277.78;5202618;28;20422;-61
2022/07/18 06:38:56;;;;;;;10.70;2.73;;;;;;;34.52;27.33;102246.59;5198444;28;20763;-58
2022/07/18 06:41:28;;;;;;;5.50;2.17;;;;;;;35.14;26.82;102280.25;5198242;28;20571;-58
2022/07/18 06:44:02;;;;;;;8.57;2.43;;;;;;;35.47;26.25;102273.22;5195630;28;20435;-60
2022/07/18 06:46:36;;;;;;;12.77;3.40;;;;;;;35.56;26.20;102266.84;5200176;28;20519;-60
2022/07/18 06:49:08;;;;;;;11.20;3.08;;;;;;;36.39;25.58;102272.53;5193519;28;20399;-59
2022/07/18 06:51:41;;;;;;;14.60;3.25;;;;;;;37.02;24.91;102269.69;5177549;28;21005;-62
2022/07/18 06:54:14;;;;;;;10.70;2.97;;;;;;;37.77;24.36;102265.34;5203612;28;20397;-58
2022/07/18 06:56:46;;;;;;;13.25;3.55;;;;;;;38.58;23.75;102267.84;5209609;28;20738;-61
2022/07/18 06:59:20;;;;;;;14.88;3.40;;;;;;;39.15;23.21;102262.84;5199242;28;20409;-62
2022/07/18 07:01:53;;;;;;;17.60;2.87;;;;;;;39.72;22.86;102265.97;5191938;28;20496;-62
2022/07/18 07:04:25;;;;;;;13.75;2.80;;;;;;;39.92;22.64;102272.97;5203878;28;20729;-63
2022/07/18 07:06:58;;;;;;;20.73;3.22;;;;;;;40.19;22.54;102280.31;5181412;28;20500;-63
2022/07/18 07:09:30;;;;;;;10.10;2.35;;;;;;;40.14;22.38;102277.69;5197459;28;20493;-59
2022/07/18 07:12:02;;;;;;;12.25;2.17;;;;;;;39.72;22.48;102281.75;5199204;28;20424;-61
2022/07/18 07:14:36;;;;;;;9.48;2.83;;;;;;;38.95;22.70;102289.78;5197477;28;20422;-59
2022/07/18 07:17:09;;;;;;;7.10;2.47;;;;;;;37.95;23.28;102286.59;5195269;28;20473;-62
2022/07/18 07:19:41;;;;;;;6.35;2.25;;;;;;;37.10;23.47;102290.25;5197706;28;20445;-60
2022/07/18 07:22:13;;;;;;;7.38;3.05;;;;;;;36.38;23.81;102287.41;5199788;28;20428;-59
2022/07/18 07:24:46;;;;;;;11.50;3.30;;;;;;;35.78;24.14;102284.84;5199667;28;20437;-60
2022/07/18 07:27:18;;;;;;;9.13;3.30;;;;;;;35.29;24.21;102289.22;5200763;28;20478;-44
2022/07/18 07:29:52;;;;;;;7.40;2.92;;;;;;;35.03;24.45;102282.19;5210261;28;20426;-60
2022/07/18 07:32:24;;;;;;;4.65;2.42;;;;;;;34.96;24.18;102279.72;5204253;28;20501;-58
2022/07/18 07:34:57;;;;;;;6.65;2.40;;;;;;;35.30;24.09;102282.63;5200069;28;20417;-63
2022/07/18 07:37:29;;;;;;;8.57;2.28;;;;;;;35.90;23.58;102277.06;5180195;28;20527;-62
2022/07/18 07:40:02;;;;;;;7.10;2.78;;;;;;;36.55;23.31;102290.59;5174825;28;20436;-63
2022/07/18 07:42:34;;;;;;;9.70;2.70;;;;;;;37.20;22.92;102286.53;5194079;28;20425;-60
2022/07/18 07:45:10;;;;;;;8.10;2.67;;;;;;;37.57;22.72;102255.47;5194227;28;20418;-61
2022/07/18 07:47:43;;;;;;;8.07;2.67;;;;;;;38.14;22.41;102278.28;5196998;28;20876;-60
2022/07/18 07:50:15;;;;;;;14.00;3.05;;;;;;;38.33;22.51;102267.19;5203100;28;20967;-61
2022/07/18 07:52:48;;;;;;;8.07;2.72;;;;;;;38.46;22.26;102247.09;5194964;28;20925;-59
2022/07/18 07:55:20;;;;;;;9.10;2.97;;;;;;;38.88;22.10;102272.81;5189474;28;20569;-59
2022/07/18 07:57:52;;;;;;;8.40;2.38;;;;;;;39.06;22.16;102273.00;5188738;28;20422;-62
2022/07/18 08:00:27;;;;;;;10.48;2.33;;;;;;;39.18;22.17;102270.53;5194069;28;20439;-62
2022/07/18 08:03:02;;;;;;;8.02;2.72;;;;;;;39.06;22.27;102259.19;5193932;28;20517;-61
2022/07/18 08:05:37;;;;;;;9.02;2.50;;;;;;;39.15;22.31;102268.38;5193575;28;20772;-62
2022/07/18 08:08:11;;;;;;;6.90;2.75;;;;;;;39.36;22.12;102254.94;5199794;28;20447;-63
2022/07/18 08:10:44;;;;;;;11.43;3.17;;;;;;;39.38;22.16;102260.97;5210898;28;20411;-62
2022/07/18 08:13:16;;;;;;;7.43;2.63;;;;;;;39.31;22.17;102271.66;5205185;28;20948;-62
2022/07/18 08:15:50;;;;;;;8.13;2.88;;;;;;;39.16;22.23;102270.00;5204520;28;20446;-51
2022/07/18 08:18:22;;;;;;;8.35;2.83;;;;;;;38.81;22.41;102272.38;5210404;28;20517;-62
2022/07/18 08:20:55;;;;;;;9.63;2.63;;;;;;;38.62;22.40;102282.69;5207902;28;20793;-62
2022/07/18 08:23:27;;;;;;;9.63;2.88;;;;;;;38.25;22.65;102278.91;5209667;28;20421;-61
2022/07/18 08:25:59;;;;;;;12.15;2.78;;;;;;;37.53;22.78;102263.50;5209991;28;20500;-60
2022/07/18 08:28:32;;;;;;;9.07;3.00;;;;;;;37.30;22.86;102269.91;5210187;28;20911;-62
2022/07/18 08:31:06;;;;;;;7.75;2.53;;;;;;;37.20;22.82;102275.50;5210731;28;20506;-63
2022/07/18 08:33:38;;;;;;;6.65;2.78;;;;;;;36.94;23.00;102276.63;5209785;28;21290;-60
2022/07/18 08:36:11;;;;;;;11.25;2.80;;;;;;;36.57;22.74;102282.03;5207639;28;20525;-60
2022/07/18 08:38:43;;;;;;;6.63;2.65;;;;;;;36.19;22.83;102274.38;5207699;28;20413;-59
2022/07/18 08:41:17;;;;;;;10.77;3.47;;;;;;;35.86;23.05;102275.16;5209518;28;20949;-60
2022/07/18 08:43:50;;;;;;;7.60;2.83;;;;;;;35.51;23.05;102274.28;5206924;28;20425;-56
2022/07/18 08:46:24;;;;;;;10.23;2.70;;;;;;;35.18;23.09;102270.31;5190319;28;20414;-61
2022/07/18 08:48:57;;;;;;;6.95;2.67;;;;;;;34.87;23.29;102278.66;5190909;28;20438;-59
2022/07/18 08:51:29;;;;;;;6.05;2.78;;;;;;;34.64;23.42;102258.13;5189787;28;20415;-57
2022/07/18 08:54:03;;;;;;;14.45;3.33;;;;;;;34.40;23.24;102261.44;5194580;28;20445;-62
2022/07/18 08:56:35;;;;;;;8.48;2.92;;;;;;;34.24;23.23;102267.22;5192937;28;20473;-58
2022/07/18 08:59:08;;;;;;;7.13;2.95;;;;;;;34.01;23.50;102254.88;5191797;28;20409;-55
2022/07/18 09:01:41;;;;;;;8.45;2.83;;;;;;;33.93;23.44;102261.69;5197634;28;20429;-57
2022/07/18 09:04:34;;;;;;;10.65;3.20;;;;;;;33.84;23.70;102244.97;5208399;28;20413;-59
2022/07/18 09:07:09;;;;;;;8.38;2.88;;;;;;;34.04;23.60;102262.53;5199325;28;20465;-60
2022/07/18 09:09:54;;;;;;;8.43;3.15;;;;;;;34.16;23.56;102258.47;5197331;28;20504;-59
2022/07/18 09:12:30;;;;;;;10.60;3.20;;;;;;;34.31;23.65;102259.53;5180740;28;20462;-56
2022/07/18 09:15:15;;;;;;;12.40;2.95;;;;;;;34.52;23.26;102261.16;5188551;28;20757;-60
2022/07/18 09:17:51;;;;;;;12.83;3.30;;;;;;;34.73;23.28;102256.47;5188056;28;20885;-59
2022/07/18 09:20:23;;;;;;;11.60;3.23;;;;;;;34.93;22.90;102254.75;5189990;28;20902;-59
2022/07/18 09:22:56;;;;;;;9.25;2.97;;;;;;;35.14;22.80;102245.34;5199219;28;20499;-59
2022/07/18 09:25:34;;;;;;;9.03;3.20;;;;;;;35.30;22.70;102241.41;5188098;28;20477;-59
2022/07/18 09:28:10;;;;;;;10.65;3.40;;;;;;;35.36;22.73;102244.97;5199810;28;20417;-60
2022/07/18 09:30:43;;;;;;;8.45;3.35;;;;;;;35.44;22.83;102243.56;5187135;28;20514;-60
2022/07/18 09:33:20;;;;;;;10.20;2.67;;;;;;;35.37;22.69;102240.28;5186556;28;20415;-58
2022/07/18 09:35:57;;;;;;;9.80;2.90;;;;;;;35.32;22.94;102241.97;5181113;28;20426;-59
2022/07/18 09:38:31;;;;;;;10.02;3.30;;;;;;;35.03;23.33;102230.03;5190575;28;20904;-58
2022/07/18 09:41:12;;;;;;;11.10;3.17;;;;;;;34.89;23.13;102244.31;5203025;28;20422;-58
2022/07/18 09:43:44;;;;;;;11.98;3.30;;;;;;;34.74;23.31;102205.97;5194303;28;20416;-58
2022/07/18 09:46:17;;;;;;;16.52;2.75;;;;;;;35.05;23.25;102244.31;5205990;28;20431;-59
2022/07/18 09:49:12;;;;;;;11.43;3.65;;;;;;;35.03;23.08;102239.09;5183217;28;20437;-58
2022/07/18 09:52:03;;;;;;;9.35;2.60;;;;;;;35.05;23.06;102247.84;5193200;28;20921;-58
2022/07/18 09:54:44;;;;;;;12.43;3.30;;;;;;;34.89;22.89;102222.38;5181303;28;20506;-57
2022/07/18 09:57:25;;;;;;;5.68;2.47;;;;;;;35.18;22.78;102234.63;5189703;28;20480;-56
2022/07/18 09:59:58;;;;;;;10.02;2.63;;;;;;;35.29;22.48;102239.78;5187407;28;20887;-61
2022/07/18 10:02:33;;;;;;;6.65;1.92;;;;;;;35.39;22.72;102233.41;5186462;28;20608;-60
2022/07/18 10:05:09;;;;;;;6.20;1.90;;;;;;;35.60;22.03;102239.63;5189403;28;20418;-60
2022/07/18 10:07:41;;;;;;;6.50;1.95;;;;;;;35.04;22.24;102128.16;5187521;28;20478;-60
2022/07/18 10:10:15;;;;;;;4.32;1.75;;;;;;;35.75;21.77;102230.47;5188133;28;20906;-59
2022/07/18 10:12:50;;;;;;;6.43;2.60;;;;;;;35.21;22.04;102160.72;5185999;28;20425;-60
2022/07/18 10:15:25;;;;;;;9.32;2.22;;;;;;;35.71;21.72;102227.47;5183390;28;20553;-59
2022/07/18 10:17:59;;;;;;;3.93;1.43;;;;;;;35.71;21.94;102227.47;5202299;28;20449;-58
2022/07/18 10:20:39;;;;;;;5.65;1.95;;;;;;;35.72;21.66;102231.84;5196640;28;20415;-59
2022/07/18 10:23:18;;;;;;;6.93;2.40;;;;;;;35.59;21.59;102221.50;5205245;28;20496;-59
2022/07/18 10:26:16;;;;;;;5.82;2.22;;;;;;;35.59;21.74;102217.94;5192894;28;20898;-59
2022/07/18 10:29:14;;;;;;;8.63;2.40;;;;;;;35.73;21.45;102219.72;5202070;28;20491;-59
2022/07/18 10:32:07;;;;;;;7.63;2.50;;;;;;;35.83;21.50;102220.75;5197045;28;20414;-59
2022/07/18 10:34:41;;;;;;;9.15;2.75;;;;;;;35.94;21.01;102227.81;5195238;28;20500;-60
2022/07/18 10:37:15;;;;;;;6.30;1.70;;;;;;;35.77;20.93;102185.09;5195925;28;20498;-58
2022/07/18 10:39:49;;;;;;;6.60;2.10;;;;;;;35.95;21.23;102224.78;5189346;28;20455;-55
2022/07/18 10:42:24;;;;;;;3.05;1.90;;;;;;;35.94;21.17;102217.66;5184951;28;20547;-60
2022/07/18 10:44:56;;;;;;;7.50;2.20;;;;;;;36.06;21.04;102228.31;5187310;28;20423;-61
2022/07/18 10:47:30;;;;;;;5.13;1.92;;;;;;;36.10;20.93;102215.59;5187199;28;20861;-60
2022/07/18 10:50:09;;;;;;;5.25;2.20;;;;;;;36.21;20.67;102222.66;5189826;28;20500;-57
2022/07/18 10:53:01;;;;;;;8.20;3.47;;;;;;;36.00;20.51;102215.69;5194003;28;20425;-54
2022/07/18 10:55:35;;;;;;;6.68;2.28;;;;;;;35.87;20.59;102210.84;5193011;28;20423;-55
2022/07/18 10:58:22;;;;;;;6.13;2.42;;;;;;;35.68;20.33;102206.06;5189820;28;20406;-59
2022/07/18 11:01:02;;;;;;;4.97;2.15;;;;;;;35.74;20.47;102215.06;5164824;28;20415;-60
2022/07/18 11:03:34;;;;;;;7.32;2.70;;;;;;;35.82;20.18;102194.38;5187584;28;20426;-58
2022/07/18 11:06:07;;;;;;;5.47;3.00;;;;;;;36.18;20.14;102209.47;5185815;28;21078;-60
2022/07/18 11:08:40;;;;;;;4.70;2.53;;;;;;;36.39;20.01;102212.00;5186385;28;20422;-54
2022/07/18 11:11:14;;;;;;;7.22;2.80;;;;;;;36.64;19.92;102214.53;5174322;28;20795;-58
2022/07/18 11:13:50;;;;;;;8.15;2.80;;;;;;;36.70;19.60;102185.81;5191247;28;20411;-58
2022/07/18 11:16:27;;;;;;;4.88;2.40;;;;;;;37.00;19.60;102205.81;5182503;28;20811;-56
2022/07/18 11:19:21;;;;;;;5.80;2.35;;;;;;;37.30;19.45;102203.78;5187502;28;20433;-57
2022/07/18 11:22:00;;;;;;;5.43;2.43;;;;;;;37.32;19.16;102196.84;5185167;28;20415;-55
2022/07/18 11:24:34;;;;;;;4.72;2.10;;;;;;;37.19;19.35;102196.75;5189945;28;20506;-57
2022/07/18 11:27:06;;;;;;;8.77;2.70;;;;;;;37.02;19.50;102178.81;5196146;28;20488;-59
2022/07/18 11:29:43;;;;;;;7.13;2.83;;;;;;;36.93;19.55;102199.84;5190921;28;20473;-59
2022/07/18 11:32:22;;;;;;;8.38;3.08;;;;;;;36.92;19.86;102199.03;5191548;28;20415;-58
2022/07/18 11:34:55;;;;;;;6.95;2.60;;;;;;;36.98;19.62;102186.00;5198424;28;20412;-60
2022/07/18 11:37:27;;;;;;;4.35;2.20;;;;;;;37.11;19.58;102174.28;5206529;28;20433;-60
2022/07/18 11:40:08;;;;;;;11.35;2.33;;;;;;;36.98;19.75;102186.00;5206515;28;20808;-59
2022/07/18 11:42:41;;;;;;;4.45;2.10;;;;;;;36.98;19.57;102182.41;5197994;28;20492;-59
2022/07/18 11:45:15;;;;;;;5.57;2.35;;;;;;;36.94;19.52;102185.75;5212153;28;20417;-61
2022/07/18 11:47:49;;;;;;;3.78;2.50;;;;;;;37.05;19.60;102174.66;5210785;28;20415;-60
2022/07/18 11:50:36;;;;;;;9.40;2.27;;;;;;;36.96;19.37;102160.69;5207059;28;20486;-61
2022/07/18 11:53:10;;;;;;;4.93;2.22;;;;;;;36.94;19.49;102173.94;5201407;28;20421;-61
2022/07/18 11:55:46;;;;;;;8.05;2.20;;;;;;;36.95;19.76;102164.56;5211173;28;20431;-60
2022/07/18 11:58:19;;;;;;;7.82;2.30;;;;;;;36.89;19.54;102138.22;5205107;28;20452;-59
2022/07/18 12:00:59;;;;;;;6.20;2.57;;;;;;;37.00;19.73;102161.75;5208033;28;20570;-61